Time;durP1;ratioP1;P1;durP2;ratioP2;P2;SDS_P1;SDS_P2;PMS_P1;PMS_P2;Temp;Humidity;BMP_temperature;BMP_pressure;BME280_temperature;BME280_humidity;BME280_pressure;Samples;Min_cycle;Max_cycle;Signal;HPM_P1;HPM_P2
2021/08/09 00:02:07;;;;;;;;;;;;;;;22.04;60.38;99685.22;5261312;27;19999;-92
2021/08/09 00:04:35;;;;;;;;;;;;;;;21.95;60.36;99698.31;5261395;27;22236;-90
2021/08/09 00:07:00;;;;;;;;;;;;;;;21.59;60.35;99713.53;5262610;27;19965;-92
2021/08/09 00:09:26;;;;;;;;;;;;;;;21.54;60.34;99709.56;5262439;27;19972;-93
2021/08/09 00:11:51;;;;;;;;;;;;;;;21.52;60.35;99716.75;5262254;27;19972;-93
2021/08/09 00:14:16;;;;;;;;;;;;;;;21.50;60.35;99739.88;5261458;27;20011;-90
2021/08/09 00:16:41;;;;;;;;;;;;;;;21.74;60.36;99736.16;5261627;27;20505;-93
2021/08/09 00:19:07;;;;;;;;;;;;;;;21.77;60.36;99737.75;5298467;27;20713;-87
2021/08/09 00:21:32;;;;;;;;;;;;;;;21.87;60.37;99746.66;5298120;27;20002;-90
2021/08/09 00:23:57;;;;;;;;;;;;;;;21.75;60.35;99745.78;5260749;27;19982;-90
2021/08/09 00:26:23;;;;;;;;;;;;;;;21.79;60.35;99743.78;5279013;27;19976;-90
2021/08/09 00:28:48;;;;;;;;;;;;;;;21.67;60.35;99744.72;5260960;27;20112;-90
2021/08/09 00:31:14;;;;;;;;;;;;;;;21.68;60.36;99751.69;5260813;27;19995;-90
2021/08/09 00:33:39;;;;;;;;;;;;;;;21.55;60.34;99749.19;5261008;27;19976;-90
2021/08/09 00:36:04;;;;;;;;;;;;;;;21.41;60.33;99746.72;5298968;27;19995;-91
2021/08/09 00:38:29;;;;;;;;;;;;;;;21.60;60.35;99752.31;5260741;27;20003;-88
2021/08/09 00:40:54;;;;;;;;;;;;;;;21.53;60.35;99758.16;5259993;27;24497;-90
2021/08/09 00:43:21;;;;;;;;;;;;;;;21.58;60.35;99754.22;5278083;27;21703;-89
2021/08/09 00:45:47;;;;;;;;;;;;;;;21.42;60.34;99762.50;5261026;27;20303;-89
2021/08/09 00:48:12;;;;;;;;;;;;;;;21.42;60.34;99764.31;5278511;27;20328;-90
2021/08/09 00:50:37;;;;;;;;;;;;;;;21.19;60.33;99770.47;5260539;27;19968;-89
2021/08/09 00:53:02;;;;;;;;;;;;;;;21.09;60.33;99770.34;5260649;27;19984;-89
2021/08/09 00:55:28;;;;;;;;;;;;;;;21.03;60.32;99786.66;5260649;27;20103;-89
2021/08/09 00:57:53;;;;;;;;;;;;;;;20.99;60.31;99777.25;5278931;27;20345;-89
2021/08/09 01:00:18;;;;;;;;;;;;;;;21.12;60.32;99776.25;5261004;27;20039;-90
2021/08/09 01:02:44;;;;;;;;;;;;;;;21.09;60.33;99776.47;5261520;27;19967;-92
2021/08/09 01:05:09;;;;;;;;;;;;;;;21.25;60.33;99775.31;5262503;27;20072;-92
2021/08/09 01:07:42;;;;;;;;;;;;;;;21.25;60.34;99773.53;5261894;27;19963;-91
2021/08/09 01:10:14;;;;;;;;;;;;;;;21.09;60.33;99773.81;5279493;27;19976;-93
2021/08/09 01:12:45;;;;;;;;;;;;;;;21.18;60.33;99782.03;5279503;27;19953;-92
2021/08/09 01:15:12;;;;;;;;;;;;;;;21.02;60.32;99780.50;5260392;27;19974;-88
2021/08/09 01:17:39;;;;;;;;;;;;;;;20.99;60.32;99786.03;5278529;27;20024;-89
2021/08/09 01:20:11;;;;;;;;;;;;;;;21.26;60.33;99784.97;5278824;27;19982;-88
2021/08/09 01:22:36;;;;;;;;;;;;;;;21.08;60.31;99785.38;5298325;27;19971;-88
2021/08/09 01:25:14;;;;;;;;;;;;;;;21.03;60.32;99789.28;5278630;27;19957;-89
2021/08/09 01:27:40;;;;;;;;;;;;;;;21.00;60.32;99794.81;5260683;27;19980;-90
2021/08/09 01:30:06;;;;;;;;;;;;;;;20.96;60.32;99788.06;5278874;27;19975;-90
2021/08/09 01:32:32;;;;;;;;;;;;;;;20.65;60.30;99800.06;5279389;27;19964;-90
2021/08/09 01:34:57;;;;;;;;;;;;;;;20.70;60.29;99804.06;5281882;27;19995;-90
2021/08/09 01:37:22;;;;;;;;;;;;;;;20.68;60.30;99800.69;5263319;27;19983;-89
2021/08/09 01:39:48;;;;;;;;;;;;;;;20.70;60.31;99809.34;5262007;27;20030;-89
2021/08/09 01:42:14;;;;;;;;;;;;;;;20.66;60.30;99801.75;5261678;27;19987;-89
2021/08/09 01:44:39;;;;;;;;;;;;;;;20.62;60.29;99810.87;5280255;27;19974;-91
2021/08/09 01:47:05;;;;;;;;;;;;;;;20.64;60.30;99799.22;5262526;27;20031;-92
2021/08/09 01:49:30;;;;;;;;;;;;;;;20.61;60.29;99783.59;5281125;27;19964;-91
2021/08/09 01:51:56;;;;;;;;;;;;;;;20.59;60.30;99780.22;5262653;27;19968;-91
2021/08/09 01:54:21;;;;;;;;;;;;;;;20.47;60.29;99792.50;5261325;27;24311;-89
2021/08/09 01:56:46;;;;;;;;;;;;;;;20.43;60.29;99785.75;5261759;27;20047;-91
2021/08/09 01:59:11;;;;;;;;;;;;;;;20.29;60.28;99792.94;5261464;27;19976;-89
2021/08/09 02:01:36;;;;;;;;;;;;;;;20.38;60.28;99785.22;5261658;27;27740;-88
2021/08/09 02:04:02;;;;;;;;;;;;;;;20.26;60.28;99796.66;5272001;27;19972;-89
2021/08/09 02:06:27;;;;;;;;;;;;;;;20.27;60.28;99802.78;5273477;27;19996;-90
2021/08/09 02:08:52;;;;;;;;;;;;;;;20.24;60.29;99804.69;5269342;27;19988;-89
2021/08/09 02:11:20;;;;;;;;;;;;;;;20.08;60.27;99801.44;5282586;27;20079;-89
2021/08/09 02:13:47;;;;;;;;;;;;;;;20.19;60.27;99806.00;5281127;27;19964;-89
2021/08/09 02:16:13;;;;;;;;;;;;;;;20.12;60.27;99813.50;5280072;27;19976;-90
2021/08/09 02:18:45;;;;;;;;;;;;;;;20.05;60.27;99828.09;5279428;27;19987;-90
2021/08/09 02:21:12;;;;;;;;;;;;;;;20.21;60.27;99828.72;5279423;27;19979;-91
2021/08/09 02:23:49;;;;;;;;;;;;;;;20.22;60.28;99824.28;5261166;27;19960;-90
2021/08/09 02:26:20;;;;;;;;;;;;;;;20.16;60.28;99836.13;5279361;27;19980;-91
2021/08/09 02:28:46;;;;;;;;;;;;;;;20.38;60.28;99843.38;5279754;27;19972;-91
2021/08/09 02:31:12;;;;;;;;;;;;;;;20.27;60.28;99853.00;5262310;27;20700;-93
2021/08/09 02:33:37;;;;;;;;;;;;;;;20.30;60.28;99852.78;5262821;27;19968;-93
2021/08/09 02:36:03;;;;;;;;;;;;;;;20.50;60.29;99845.19;5262117;27;20221;-93
2021/08/09 02:38:28;;;;;;;;;;;;;;;20.52;60.29;99832.69;5262316;27;19971;-92
2021/08/09 02:40:53;;;;;;;;;;;;;;;20.45;60.28;99838.53;5280252;27;20230;-92
2021/08/09 02:43:19;;;;;;;;;;;;;;;20.53;60.29;99847.59;5261659;27;20095;-92
2021/08/09 02:45:44;;;;;;;;;;;;;;;20.56;60.30;99854.47;5261979;27;19988;-92
2021/08/09 02:48:09;;;;;;;;;;;;;;;20.48;60.29;99862.09;5279601;27;19960;-91
2021/08/09 02:50:34;;;;;;;;;;;;;;;20.55;60.29;99868.62;5279144;27;19976;-91
2021/08/09 02:53:00;;;;;;;;;;;;;;;20.58;60.29;99870.22;5260809;27;24399;-91
2021/08/09 02:55:25;;;;;;;;;;;;;;;20.73;60.31;99869.97;5261230;27;20026;-90
2021/08/09 02:57:51;;;;;;;;;;;;;;;20.50;60.29;99873.41;5279449;27;19988;-91
2021/08/09 03:00:16;;;;;;;;;;;;;;;20.58;60.29;99875.50;5279744;27;19967;-90
2021/08/09 03:02:42;;;;;;;;;;;;;;;20.60;60.29;99869.19;5260790;27;21315;-91
2021/08/09 03:05:07;;;;;;;;;;;;;;;20.60;60.29;99870.97;5279548;27;19971;-91
2021/08/09 03:07:36;;;;;;;;;;;;;;;20.61;60.29;99867.38;5261443;27;19986;-91
2021/08/09 03:10:02;;;;;;;;;;;;;;;20.44;60.29;99871.22;5261838;27;19964;-92
2021/08/09 03:12:27;;;;;;;;;;;;;;;20.23;60.27;99866.44;5262070;27;20048;-92
2021/08/09 03:14:52;;;;;;;;;;;;;;;20.25;60.28;99874.28;5261249;27;20302;-91
2021/08/09 03:17:18;;;;;;;;;;;;;;;20.14;60.27;99879.47;5261571;27;20043;-91
2021/08/09 03:19:43;;;;;;;;;;;;;;;20.05;60.27;99875.66;5261640;27;19975;-92
2021/08/09 03:22:10;;;;;;;;;;;;;;;20.09;60.28;99876.28;5279469;27;19972;-92
2021/08/09 03:24:35;;;;;;;;;;;;;;;20.07;60.26;99880.81;5280711;27;19972;-92
2021/08/09 03:27:00;;;;;;;;;;;;;;;20.02;60.27;99893.53;5262957;27;20395;-93
2021/08/09 03:29:26;;;;;;;;;;;;;;;20.06;60.26;99887.91;5262210;27;19968;-92
2021/08/09 03:31:51;;;;;;;;;;;;;;;19.92;60.26;99893.31;5262384;27;19983;-92
2021/08/09 03:34:17;;;;;;;;;;;;;;;19.92;60.26;99891.53;5262189;27;19973;-91
2021/08/09 03:36:44;;;;;;;;;;;;;;;19.81;60.25;99886.09;5262339;27;19987;-94
2021/08/09 03:39:09;;;;;;;;;;;;;;;19.90;60.26;99892.56;5263514;27;19961;-92
2021/08/09 03:41:35;;;;;;;;;;;;;;;19.70;60.24;99885.16;5308065;27;19986;-92
2021/08/09 03:44:00;;;;;;;;;;;;;;;19.61;60.25;99898.00;5265725;27;20019;-91
2021/08/09 03:46:25;;;;;;;;;;;;;;;19.43;60.24;99895.72;5261114;27;20008;-90
2021/08/09 03:48:51;;;;;;;;;;;;;;;19.55;60.24;99902.84;5261011;27;19961;-91
2021/08/09 03:51:16;;;;;;;;;;;;;;;19.59;60.25;99904.34;5261131;27;19999;-90
2021/08/09 03:53:41;;;;;;;;;;;;;;;19.45;60.23;99902.59;5298415;27;19984;-88
2021/08/09 03:56:06;;;;;;;;;;;;;;;19.17;60.22;99902.72;5298164;27;23037;-92
2021/08/09 03:58:32;;;;;;;;;;;;;;;19.32;60.23;99888.50;5261189;27;19970;-92
2021/08/09 04:00:57;;;;;;;;;;;;;;;19.32;60.23;99892.00;5278967;27;20000;-89
2021/08/09 04:03:22;;;;;;;;;;;;;;;19.41;60.24;99893.19;5298073;27;19968;-91
2021/08/09 04:05:48;;;;;;;;;;;;;;;19.35;60.23;99893.56;5278551;27;19990;-91
2021/08/09 04:08:13;;;;;;;;;;;;;;;19.33;60.23;99904.25;5261534;27;20035;-90
2021/08/09 04:10:39;;;;;;;;;;;;;;;19.33;60.23;99903.41;5261432;27;20305;-90
2021/08/09 04:13:04;;;;;;;;;;;;;;;19.24;60.23;99902.22;5261523;27;20010;-90
2021/08/09 04:15:29;;;;;;;;;;;;;;;19.19;60.22;99896.41;5261788;27;20234;-91
2021/08/09 04:17:54;;;;;;;;;;;;;;;19.14;60.22;99913.44;5260884;27;19987;-90
2021/08/09 04:20:19;;;;;;;;;;;;;;;19.06;60.22;99916.59;5278956;27;19952;-90
2021/08/09 04:22:45;;;;;;;;;;;;;;;19.10;60.22;99920.72;5279794;27;19969;-90
2021/08/09 04:25:10;;;;;;;;;;;;;;;19.22;60.23;99930.50;5260663;27;19999;-89
2021/08/09 04:27:35;;;;;;;;;;;;;;;19.29;60.22;99928.31;5259944;27;21395;-91
2021/08/09 04:30:00;;;;;;;;;;;;;;;19.49;60.24;99932.28;5278378;27;19976;-88
2021/08/09 04:32:26;;;;;;;;;;;;;;;19.59;60.24;99928.09;5297976;27;19960;-89
2021/08/09 04:34:51;;;;;;;;;;;;;;;19.71;60.26;99919.38;5278433;27;19979;-87
2021/08/09 04:37:17;;;;;;;;;;;;;;;19.73;60.25;99922.75;5260545;27;19999;-88
2021/08/09 04:39:42;;;;;;;;;;;;;;;19.65;60.25;99924.22;5260198;27;19956;-88
2021/08/09 04:42:07;;;;;;;;;;;;;;;19.57;60.24;99922.94;5260459;27;20011;-87
2021/08/09 04:44:32;;;;;;;;;;;;;;;19.61;60.25;99921.78;5260431;27;19987;-88
2021/08/09 04:46:58;;;;;;;;;;;;;;;19.81;60.25;99924.87;5278702;27;19960;-87
2021/08/09 04:49:23;;;;;;;;;;;;;;;19.96;60.26;99926.50;5259946;27;19984;-87
2021/08/09 04:51:49;;;;;;;;;;;;;;;20.10;60.27;99917.59;5278242;27;20566;-88
2021/08/09 04:54:14;;;;;;;;;;;;;;;20.06;60.26;99916.13;5278589;27;20253;-88
2021/08/09 04:56:39;;;;;;;;;;;;;;;20.09;60.27;99906.19;5256366;27;19975;-88
2021/08/09 04:59:04;;;;;;;;;;;;;;;20.14;60.27;99921.75;5277635;27;20051;-87
2021/08/09 05:01:30;;;;;;;;;;;;;;;20.30;60.28;99914.44;5259723;27;19985;-87
2021/08/09 05:03:55;;;;;;;;;;;;;;;20.40;60.29;99928.75;5297546;27;28581;-87
2021/08/09 05:06:20;;;;;;;;;;;;;;;20.60;60.29;99930.00;5260617;27;20350;-86
2021/08/09 05:08:45;;;;;;;;;;;;;;;20.49;60.29;99925.47;5260701;27;20222;-87
2021/08/09 05:11:12;;;;;;;;;;;;;;;20.65;60.30;99919.94;5297345;27;27380;-88
2021/08/09 05:13:37;;;;;;;;;;;;;;;20.64;60.30;99922.69;5279024;27;19972;-87
2021/08/09 05:16:03;;;;;;;;;;;;;;;20.84;60.31;99915.03;5279619;27;20006;-88
2021/08/09 05:18:28;;;;;;;;;;;;;;;20.93;60.31;99913.53;5278960;27;20048;-87
2021/08/09 05:20:53;;;;;;;;;;;;;;;20.74;60.30;99915.78;5280473;27;20011;-88
2021/08/09 05:23:18;;;;;;;;;;;;;;;20.86;60.30;99914.94;5288490;27;20254;-88
2021/08/09 05:25:44;;;;;;;;;;;;;;;20.76;60.30;99924.47;5288010;27;19972;-88
2021/08/09 05:28:09;;;;;;;;;;;;;;;20.84;60.30;99922.97;5302333;27;19986;-86
2021/08/09 05:30:34;;;;;;;;;;;;;;;20.86;60.30;99922.88;5262930;27;19964;-87
2021/08/09 05:33:00;;;;;;;;;;;;;;;20.92;60.31;99925.06;5298918;27;20088;-87
2021/08/09 05:35:26;;;;;;;;;;;;;;;20.94;60.31;99924.94;5279368;27;19975;-87
2021/08/09 05:37:51;;;;;;;;;;;;;;;20.86;60.30;99914.94;5278234;27;29057;-87
2021/08/09 05:40:16;;;;;;;;;;;;;;;21.00;60.32;99917.41;5260715;27;19996;-88
2021/08/09 05:42:44;;;;;;;;;;;;;;;21.02;60.31;99927.88;5261352;27;20026;-88
2021/08/09 05:45:09;;;;;;;;;;;;;;;21.03;60.32;99933.06;5299282;27;19970;-87
2021/08/09 05:47:34;;;;;;;;;;;;;;;21.35;60.34;99938.69;5299012;27;20258;-88
2021/08/09 05:49:59;;;;;;;;;;;;;;;21.28;60.33;99944.53;5298204;27;24024;-88
2021/08/09 05:52:25;;;;;;;;;;;;;;;21.35;60.33;99945.81;5279322;27;20010;-88
2021/08/09 05:54:51;;;;;;;;;;;;;;;21.42;60.34;99944.38;5261318;27;20419;-87
2021/08/09 05:57:16;;;;;;;;;;;;;;;21.39;60.33;99945.47;5279254;27;19971;-88
2021/08/09 05:59:41;;;;;;;;;;;;;;;21.49;60.35;99953.56;5298883;27;19980;-88
2021/08/09 06:02:06;;;;;;;;;;;;;;;21.39;60.34;99957.84;5298395;27;29641;-88
2021/08/09 06:04:32;;;;;;;;;;;;;;;21.50;60.34;99949.94;5261016;27;19974;-87
2021/08/09 06:06:57;;;;;;;;;;;;;;;21.37;60.34;99951.84;5279100;27;20021;-88
2021/08/09 06:09:22;;;;;;;;;;;;;;;21.44;60.34;99943.31;5279229;27;19968;-88
2021/08/09 06:11:48;;;;;;;;;;;;;;;21.41;60.33;99945.34;5279039;27;22146;-87
2021/08/09 06:14:13;;;;;;;;;;;;;;;21.44;60.34;99948.59;5279517;27;19999;-88
2021/08/09 06:16:38;;;;;;;;;;;;;;;21.44;60.34;99953.06;5299044;27;20298;-87
2021/08/09 06:19:03;;;;;;;;;;;;;;;21.65;60.36;99954.13;5299100;27;19976;-88
2021/08/09 06:21:28;;;;;;;;;;;;;;;21.65;60.35;99959.41;5278363;27;28823;-88
2021/08/09 06:23:54;;;;;;;;;;;;;;;21.81;60.36;99958.28;5279123;27;19995;-87
2021/08/09 06:26:19;;;;;;;;;;;;;;;21.67;60.35;99954.84;5298717;27;20360;-87
2021/08/09 06:28:44;;;;;;;;;;;;;;;21.58;60.35;99954.69;5298993;27;20232;-88
2021/08/09 06:31:09;;;;;;;;;;;;;;;21.54;60.34;99955.91;5278909;27;19971;-88
2021/08/09 06:33:35;;;;;;;;;;;;;;;21.61;60.34;99952.66;5279652;27;19967;-88
2021/08/09 06:36:00;;;;;;;;;;;;;;;21.67;60.35;99954.84;5261841;27;20024;-87
2021/08/09 06:38:25;;;;;;;;;;;;;;;21.68;60.35;99961.84;5279053;27;26046;-88
2021/08/09 06:40:50;;;;;;;;;;;;;;;21.88;60.37;99970.94;5298951;27;19975;-87
2021/08/09 06:43:15;;;;;;;;;;;;;;;22.12;60.38;99970.94;5278851;27;20014;-88
2021/08/09 06:45:41;;;;;;;;;;;;;;;22.26;60.38;99967.22;5278925;27;19968;-88
2021/08/09 06:48:07;;;;;;;;;;;;;;;22.35;60.39;99966.50;5279377;27;20317;-87
2021/08/09 06:50:32;;;;;;;;;;;;;;;22.14;60.38;99971.66;5279013;27;20034;-88
2021/08/09 06:52:57;;;;;;;;;;;;;;;22.26;60.38;99970.72;5278553;27;27239;-88
2021/08/09 06:55:22;;;;;;;;;;;;;;;22.29;60.38;99972.28;5261030;27;20043;-88
2021/08/09 06:57:47;;;;;;;;;;;;;;;22.58;60.40;99962.06;5279191;27;20027;-88
2021/08/09 07:00:13;;;;;;;;;;;;;;;22.77;60.41;99961.47;5279662;27;19987;-88
2021/08/09 07:02:38;;;;;;;;;;;;;;;22.87;60.41;99950.00;5299081;27;20052;-88
2021/08/09 07:05:03;;;;;;;;;;;;;;;22.98;60.42;99954.50;5299307;27;19964;-88
2021/08/09 07:07:29;;;;;;;;;;;;;;;23.20;60.42;99953.59;5279141;27;19983;-88
2021/08/09 07:09:54;;;;;;;;;;;;;;;23.45;60.45;99952.44;5299153;27;20097;-88
2021/08/09 07:12:19;;;;;;;;;;;;;;;23.29;60.44;99944.88;5278959;27;19980;-88
2021/08/09 07:14:44;;;;;;;;;;;;;;;23.43;60.45;99951.72;5260823;27;19976;-87
2021/08/09 07:17:10;;;;;;;;;;;;;;;23.54;60.45;99960.47;5278997;27;20000;-88
2021/08/09 07:19:35;;;;;;;;;;;;;;;23.68;60.46;99955.87;5279072;27;19996;-87
2021/08/09 07:22:02;;;;;;;;;;;;;;;23.67;60.46;99960.34;5278986;27;19968;-88
2021/08/09 07:24:27;;;;;;;;;;;;;;;23.52;60.45;99959.78;5261025;27;20314;-89
2021/08/09 07:26:52;;;;;;;;;;;;;;;23.85;60.46;99956.16;5278471;27;22970;-88
2021/08/09 07:29:17;;;;;;;;;;;;;;;24.01;60.47;99958.38;5260908;27;20000;-87
2021/08/09 07:31:42;;;;;;;;;;;;;;;24.01;60.48;99953.03;5259953;27;19988;-87
2021/08/09 07:34:08;;;;;;;;;;;;;;;24.14;60.49;99951.03;5259452;27;20002;-87
2021/08/09 07:36:33;;;;;;;;;;;;;;;24.33;60.49;99950.31;5297926;27;20088;-87
2021/08/09 07:38:58;;;;;;;;;;;;;;;24.17;60.48;99949.94;5297300;27;27941;-88
2021/08/09 07:41:23;;;;;;;;;;;;;;;24.18;60.48;99943.66;5259521;27;20256;-87
2021/08/09 07:43:49;;;;;;;;;;;;;;;24.28;60.49;99943.69;5297541;27;21203;-86
2021/08/09 07:46:14;;;;;;;;;;;;;;;24.41;60.49;99942.53;5298150;27;20470;-85
2021/08/09 07:48:39;;;;;;;;;;;;;;;24.43;60.49;99945.91;5278144;27;19990;-86
2021/08/09 07:51:04;;;;;;;;;;;;;;;24.37;60.50;99945.56;5296778;27;28368;-86
2021/08/09 07:53:30;;;;;;;;;;;;;;;24.37;60.50;99943.78;5297952;27;19987;-86
2021/08/09 07:55:55;;;;;;;;;;;;;;;24.46;60.50;99931.50;5257061;27;126940;-86
2021/08/09 07:58:20;;;;;;;;;;;;;;;24.59;60.51;99932.09;5275162;27;20033;-87
2021/08/09 08:00:46;;;;;;;;;;;;;;;24.41;60.49;99945.22;5277906;27;19964;-85
2021/08/09 08:03:11;;;;;;;;;;;;;;;24.39;60.50;99948.97;5259872;27;20308;-86
2021/08/09 08:05:36;;;;;;;;;;;;;;;24.60;60.50;99955.06;5278113;27;19968;-88
2021/08/09 08:08:02;;;;;;;;;;;;;;;24.71;60.51;99955.00;5297772;27;19964;-88
2021/08/09 08:10:27;;;;;;;;;;;;;;;24.70;60.51;99958.62;5298835;27;20321;-86
2021/08/09 08:12:52;;;;;;;;;;;;;;;24.72;60.52;99963.81;5280188;27;20331;-86
2021/08/09 08:15:17;;;;;;;;;;;;;;;24.80;60.51;99969.31;5263162;27;20289;-87
2021/08/09 08:17:43;;;;;;;;;;;;;;;25.08;60.53;99962.44;5263410;27;22557;-86
2021/08/09 08:20:08;;;;;;;;;;;;;;;25.14;60.54;99969.87;5281725;27;19974;-88
2021/08/09 08:22:34;;;;;;;;;;;;;;;25.04;60.53;99963.66;5281428;27;19976;-88
2021/08/09 08:24:59;;;;;;;;;;;;;;;25.23;60.55;99962.87;5279610;27;19982;-88
2021/08/09 08:27:24;;;;;;;;;;;;;;;25.53;60.55;99970.75;5279559;27;19988;-88
2021/08/09 08:29:49;;;;;;;;;;;;;;;25.62;60.57;99979.78;5279993;27;19972;-88
2021/08/09 08:32:14;;;;;;;;;;;;;;;25.83;60.57;99969.84;5279221;27;22088;-85
2021/08/09 08:34:40;;;;;;;;;;;;;;;26.00;60.57;99979.78;5299715;27;19994;-89
2021/08/09 08:37:05;;;;;;;;;;;;;;;26.19;60.59;99980.75;5265333;27;19986;-87
2021/08/09 08:39:30;;;;;;;;;;;;;;;26.37;60.60;99983.53;5304730;27;20411;-88
2021/08/09 08:41:56;;;;;;;;;;;;;;;26.60;60.60;99993.72;5306124;27;20018;-86
2021/08/09 08:44:21;;;;;;;;;;;;;;;26.82;60.63;99992.53;5280711;27;19976;-87
2021/08/09 08:46:47;;;;;;;;;;;;;;;26.86;60.62;99983.22;5279380;27;19994;-87
2021/08/09 08:49:14;;;;;;;;;;;;;;;27.16;60.63;99990.12;5259772;27;20027;-87
2021/08/09 08:51:46;;;;;;;;;;;;;;;26.98;60.63;99993.72;5278030;27;19983;-88
2021/08/09 08:54:14;;;;;;;;;;;;;;;27.44;60.64;100000.78;5278123;27;20032;-86
2021/08/09 08:56:39;;;;;;;;;;;;;;;27.52;60.65;99999.06;5278630;27;20040;-87
2021/08/09 08:59:11;;;;;;;;;;;;;;;27.70;60.66;99996.44;5277763;27;19986;-86
2021/08/09 09:01:37;;;;;;;;;;;;;;;27.94;60.67;99997.62;5260971;27;19970;-86
2021/08/09 09:04:21;;;;;;;;;;;;;;;28.02;60.68;99993.19;5278725;27;19964;-87
2021/08/09 09:06:47;;;;;;;;;;;;;;;28.23;60.70;99992.00;5278896;27;20039;-85
2021/08/09 09:09:22;;;;;;;;;;;;;;;28.12;60.68;99996.59;5278620;27;19972;-86
2021/08/09 09:11:47;;;;;;;;;;;;;;;28.03;60.68;99999.38;5278809;27;20014;-87
2021/08/09 09:14:13;;;;;;;;;;;;;;;27.99;60.68;99998.00;5260421;27;19987;-86
2021/08/09 09:16:45;;;;;;;;;;;;;;;28.24;60.70;99989.16;5277777;27;24671;-87
2021/08/09 09:19:10;;;;;;;;;;;;;;;28.49;60.71;99994.72;5259212;27;19965;-86
2021/08/09 09:21:36;;;;;;;;;;;;;;;28.39;60.70;99995.69;5297206;27;20006;-88
2021/08/09 09:24:15;;;;;;;;;;;;;;;28.60;60.71;99995.28;5297351;27;20786;-87
2021/08/09 09:26:41;;;;;;;;;;;;;;;28.79;60.71;99993.37;5277844;27;20304;-88
2021/08/09 09:29:15;;;;;;;;;;;;;;;28.89;60.73;100002.19;5278606;27;19964;-90
2021/08/09 09:31:40;;;;;;;;;;;;;;;29.18;60.75;99991.91;5278175;27;19964;-90
2021/08/09 09:34:09;;;;;;;;;;;;;;;29.24;60.74;100001.12;5260445;27;19964;-90
2021/08/09 09:36:47;;;;;;;;;;;;;;;29.31;60.75;100000.28;5277782;27;19998;-88
2021/08/09 09:39:28;;;;;;;;;;;;;;;29.62;60.76;99995.22;5298165;27;19957;-89
2021/08/09 09:41:53;;;;;;;;;;;;;;;29.67;60.77;99999.25;5298044;27;19968;-90
2021/08/09 09:44:25;;;;;;;;;;;;;;;29.87;60.77;100000.63;5278269;27;19971;-88
2021/08/09 09:46:50;;;;;;;;;;;;;;;29.97;60.79;100001.28;5278313;27;20436;-89
2021/08/09 09:49:31;;;;;;;;;;;;;;;29.85;60.77;99998.09;5278149;27;19970;-90
2021/08/09 09:51:57;;;;;;;;;;;;;;;29.98;60.79;100002.94;5278342;27;20019;-89
2021/08/09 09:54:23;;;;;;;;;;;;;;;30.01;60.79;100007.97;5277990;27;19957;-90
2021/08/09 09:56:48;;;;;;;;;;;;;;;30.32;60.80;100002.81;5263241;27;19981;-88
2021/08/09 09:59:13;;;;;;;;;;;;;;;30.26;60.80;100006.16;5277552;27;21668;-89
2021/08/09 10:01:39;;;;;;;;;;;;;;;30.40;60.81;100005.47;5261073;27;19968;-88
2021/08/09 10:04:05;;;;;;;;;;;;;;;30.45;60.81;100008.47;5278353;27;23996;-86
2021/08/09 10:06:31;;;;;;;;;;;;;;;30.67;60.82;100003.44;5260810;27;20361;-86
2021/08/09 10:08:56;;;;;;;;;;;;;;;30.73;60.82;100003.56;5279308;27;19967;-85
2021/08/09 10:11:21;;;;;;;;;;;;;;;30.84;60.82;100005.06;5278693;27;20225;-86
2021/08/09 10:13:47;;;;;;;;;;;;;;;31.21;60.84;100001.72;5298942;27;20003;-85
2021/08/09 10:16:12;;;;;;;;;;;;;;;31.26;60.85;100010.13;5278927;27;19979;-85
2021/08/09 10:18:39;;;;;;;;;;;;;;;30.99;60.84;99999.78;5278923;27;20763;-85
2021/08/09 10:21:05;;;;;;;;;;;;;;;31.14;60.84;100000.72;5278761;27;20007;-86
2021/08/09 10:23:36;;;;;;;;;;;;;;;31.10;60.84;100005.63;5279090;27;20030;-84
2021/08/09 10:26:02;;;;;;;;;;;;;;;31.03;60.84;100001.12;5298624;27;19976;-86
2021/08/09 10:28:47;;;;;;;;;;;;;;;31.18;60.85;99996.69;5298249;27;20009;-85
2021/08/09 10:31:24;;;;;;;;;;;;;;;31.43;60.86;99994.72;5297683;27;19968;-86
2021/08/09 10:33:50;;;;;;;;;;;;;;;31.79;60.87;100004.94;5277776;27;20014;-84
2021/08/09 10:36:20;;;;;;;;;;;;;;;31.95;60.88;100002.13;5278050;27;19992;-87
2021/08/09 10:38:46;;;;;;;;;;;;;;;31.80;60.88;99999.38;5279329;27;19964;-87
2021/08/09 10:41:14;;;;;;;;;;;;;;;32.01;60.89;100002.25;5278968;27;20313;-88
2021/08/09 10:44:11;;;;;;;;;;;;;;;32.15;60.90;100003.28;5298882;27;20447;-87
2021/08/09 10:46:43;;;;;;;;;;;;;;;32.04;60.90;100001.88;5243288;27;20050;-87
2021/08/09 10:49:08;;;;;;;;;;;;;;;32.13;60.90;99980.25;5279184;27;19975;-88
2021/08/09 10:51:52;;;;;;;;;;;;;;;32.19;60.89;99991.16;5299260;27;19976;-88
2021/08/09 10:54:29;;;;;;;;;;;;;;;32.26;60.90;99985.87;5298817;27;19969;-87
2021/08/09 10:56:55;;;;;;;;;;;;;;;32.17;60.89;99987.78;5279230;27;20079;-88
2021/08/09 10:59:39;;;;;;;;;;;;;;;31.91;60.89;99998.94;5279140;27;19964;-87
2021/08/09 11:02:04;;;;;;;;;;;;;;;31.71;60.88;99997.75;5299116;27;20002;-88
2021/08/09 11:04:30;;;;;;;;;;;;;;;31.83;60.89;99990.94;5278795;27;19961;-88
2021/08/09 11:06:55;;;;;;;;;;;;;;;31.81;60.88;99987.59;5279230;27;19987;-87
2021/08/09 11:09:30;;;;;;;;;;;;;;;31.97;60.89;99989.31;5261025;27;19965;-87
2021/08/09 11:12:10;;;;;;;;;;;;;;;32.18;60.90;99991.31;5298552;27;19965;-87
2021/08/09 11:14:56;;;;;;;;;;;;;;;32.44;60.92;99989.06;5298735;27;20015;-88
2021/08/09 11:17:21;;;;;;;;;;;;;;;32.70;60.93;99982.41;5282875;27;19979;-88
2021/08/09 11:19:46;;;;;;;;;;;;;;;33.05;60.94;99981.62;5278908;27;19976;-87
2021/08/09 11:22:16;;;;;;;;;;;;;;;33.21;60.95;99978.72;5279233;27;20202;-87
2021/08/09 11:24:41;;;;;;;;;;;;;;;33.35;60.96;99976.19;5261034;27;19976;-87
2021/08/09 11:27:07;;;;;;;;;;;;;;;33.40;60.95;99973.78;5278541;27;23053;-87
2021/08/09 11:29:49;;;;;;;;;;;;;;;33.11;60.95;99969.25;5299042;27;19960;-87
2021/08/09 11:32:14;;;;;;;;;;;;;;;32.82;60.93;99980.91;5278902;27;19960;-88
2021/08/09 11:34:58;;;;;;;;;;;;;;;32.93;60.94;99975.06;5299007;27;19980;-88
2021/08/09 11:37:23;;;;;;;;;;;;;;;32.89;60.93;99979.16;5298859;27;20368;-87
2021/08/09 11:39:49;;;;;;;;;;;;;;;32.86;60.94;99974.12;5260152;27;23520;-88
2021/08/09 11:42:14;;;;;;;;;;;;;;;32.70;60.93;99977.84;5297853;27;27926;-87
2021/08/09 11:44:39;;;;;;;;;;;;;;;32.77;60.94;99972.53;5298024;27;20430;-87
2021/08/09 11:47:05;;;;;;;;;;;;;;;32.81;60.93;99969.28;5259841;27;21925;-87
2021/08/09 11:49:30;;;;;;;;;;;;;;;32.94;60.94;99971.34;5278653;27;20199;-87
2021/08/09 11:51:58;;;;;;;;;;;;;;;33.04;60.95;99962.94;5299188;27;20688;-88
2021/08/09 11:54:23;;;;;;;;;;;;;;;32.85;60.94;99964.34;5280268;27;19968;-87
2021/08/09 11:56:52;;;;;;;;;;;;;;;33.01;60.94;99958.75;5280408;27;19976;-88
2021/08/09 11:59:17;;;;;;;;;;;;;;;33.09;60.95;99964.03;5281806;27;19955;-88
2021/08/09 12:01:43;;;;;;;;;;;;;;;33.23;60.96;99960.47;5281270;27;19964;-88
2021/08/09 12:04:15;;;;;;;;;;;;;;;33.30;60.96;99965.94;5283846;27;20008;-88
2021/08/09 12:06:52;;;;;;;;;;;;;;;33.14;60.95;99968.88;5269020;27;19948;-87
2021/08/09 12:09:18;;;;;;;;;;;;;;;33.15;60.95;99960.59;5307167;27;19984;-86
2021/08/09 12:11:44;;;;;;;;;;;;;;;33.11;60.95;99963.84;5261727;27;19967;-87
2021/08/09 12:14:13;;;;;;;;;;;;;;;33.27;60.96;99961.75;5299109;27;19984;-87
2021/08/09 12:16:44;;;;;;;;;;;;;;;33.20;60.95;99958.16;5260533;27;20269;-87
2021/08/09 12:19:11;;;;;;;;;;;;;;;33.12;60.95;99969.06;5298385;27;19975;-88
2021/08/09 12:21:36;;;;;;;;;;;;;;;32.99;60.94;99959.97;5298655;27;19968;-88
2021/08/09 12:24:02;;;;;;;;;;;;;;;32.84;60.94;99960.00;5297633;27;26859;-87
2021/08/09 12:26:28;;;;;;;;;;;;;;;33.00;60.93;99953.56;5298408;27;19982;-87
2021/08/09 12:28:54;;;;;;;;;;;;;;;33.17;60.96;99955.84;5278760;27;19967;-87
2021/08/09 12:31:32;;;;;;;;;;;;;;;32.81;60.93;99961.22;5260305;27;20323;-87
2021/08/09 12:33:59;;;;;;;;;;;;;;;32.69;60.93;99953.75;5278692;27;20326;-87
2021/08/09 12:36:24;;;;;;;;;;;;;;;32.69;60.94;99956.47;5260409;27;20000;-87
2021/08/09 12:38:49;;;;;;;;;;;;;;;32.61;60.93;99960.91;5297097;27;20340;-87
2021/08/09 12:41:22;;;;;;;;;;;;;;;32.79;60.94;99959.69;5278500;27;20273;-87
2021/08/09 12:43:48;;;;;;;;;;;;;;;32.80;60.93;99956.00;5298489;27;19964;-88